sensor_id;sensor_type;location;lat;lon;timestamp;P1;durP1;ratioP1;P2;durP2;ratioP2
28766;SDS011;15921;52.034;20.650;2022-09-27T00:02:13;24.75;;;16.45;;
28766;SDS011;15921;52.034;20.650;2022-09-27T00:04:38;29.33;;;18.63;;
28766;SDS011;15921;52.034;20.650;2022-09-27T00:07:04;28.70;;;17.08;;
28766;SDS011;15921;52.034;20.650;2022-09-27T00:09:31;26.02;;;16.85;;
28766;SDS011;15921;52.034;20.650;2022-09-27T00:11:57;32.83;;;19.05;;
28766;SDS011;15921;52.034;20.650;2022-09-27T00:14:23;27.67;;;17.20;;
28766;SDS011;15921;52.034;20.650;2022-09-27T00:16:49;28.05;;;17.60;;
28766;SDS011;15921;52.034;20.650;2022-09-27T00:19:18;31.17;;;18.63;;
28766;SDS011;15921;52.034;20.650;2022-09-27T00:21:47;29.00;;;17.02;;
28766;SDS011;15921;52.034;20.650;2022-09-27T00:24:18;27.98;;;16.77;;
28766;SDS011;15921;52.034;20.650;2022-09-27T00:26:45;26.60;;;16.33;;
28766;SDS011;15921;52.034;20.650;2022-09-27T00:29:12;25.45;;;15.30;;
28766;SDS011;15921;52.034;20.650;2022-09-27T00:31:39;28.45;;;17.40;;
28766;SDS011;15921;52.034;20.650;2022-09-27T00:34:05;27.80;;;17.95;;
28766;SDS011;15921;52.034;20.650;2022-09-27T00:36:32;25.40;;;16.52;;
28766;SDS011;15921;52.034;20.650;2022-09-27T00:38:58;21.77;;;14.30;;
28766;SDS011;15921;52.034;20.650;2022-09-27T00:41:26;26.95;;;15.98;;
28766;SDS011;15921;52.034;20.650;2022-09-27T00:43:58;22.10;;;15.32;;
28766;SDS011;15921;52.034;20.650;2022-09-27T00:46:28;36.63;;;17.42;;
28766;SDS011;15921;52.034;20.650;2022-09-27T00:51:46;106.88;;;39.15;;
28766;SDS011;15921;52.034;20.650;2022-09-27T00:54:17;50.83;;;25.25;;
28766;SDS011;15921;52.034;20.650;2022-09-27T00:56:44;41.53;;;21.58;;
28766;SDS011;15921;52.034;20.650;2022-09-27T01:01:41;30.60;;;17.42;;
28766;SDS011;15921;52.034;20.650;2022-09-27T01:04:11;31.40;;;17.88;;
28766;SDS011;15921;52.034;20.650;2022-09-27T01:06:39;27.27;;;16.70;;
28766;SDS011;15921;52.034;20.650;2022-09-27T01:09:08;86.32;;;25.58;;
28766;SDS011;15921;52.034;20.650;2022-09-27T01:11:45;140.63;;;27.33;;
28766;SDS011;15921;52.034;20.650;2022-09-27T01:29:06;57.15;;;22.20;;
28766;SDS011;15921;52.034;20.650;2022-09-27T01:43:20;62.53;;;26.70;;
28766;SDS011;15921;52.034;20.650;2022-09-27T01:45:55;51.75;;;24.73;;
28766;SDS011;15921;52.034;20.650;2022-09-27T01:48:24;52.40;;;23.33;;
28766;SDS011;15921;52.034;20.650;2022-09-27T01:51:02;67.32;;;24.10;;
28766;SDS011;15921;52.034;20.650;2022-09-27T01:53:51;40.38;;;19.83;;
28766;SDS011;15921;52.034;20.650;2022-09-27T01:56:23;48.13;;;21.73;;
28766;SDS011;15921;52.034;20.650;2022-09-27T01:59:06;48.88;;;21.83;;
28766;SDS011;15921;52.034;20.650;2022-09-27T02:01:47;48.10;;;21.35;;
28766;SDS011;15921;52.034;20.650;2022-09-27T02:04:17;44.15;;;20.85;;
28766;SDS011;15921;52.034;20.650;2022-09-27T02:06:46;47.25;;;21.10;;
28766;SDS011;15921;52.034;20.650;2022-09-27T02:09:22;43.25;;;21.85;;
28766;SDS011;15921;52.034;20.650;2022-09-27T02:11:53;39.85;;;20.55;;
28766;SDS011;15921;52.034;20.650;2022-09-27T02:14:33;37.97;;;19.77;;
28766;SDS011;15921;52.034;20.650;2022-09-27T02:17:06;39.97;;;19.38;;
28766;SDS011;15921;52.034;20.650;2022-09-27T02:19:42;50.42;;;21.90;;
28766;SDS011;15921;52.034;20.650;2022-09-27T02:30:50;44.85;;;20.75;;
28766;SDS011;15921;52.034;20.650;2022-09-27T02:33:17;42.60;;;20.50;;
28766;SDS011;15921;52.034;20.650;2022-09-27T02:35:44;47.60;;;21.85;;
28766;SDS011;15921;52.034;20.650;2022-09-27T02:38:10;39.33;;;20.23;;
28766;SDS011;15921;52.034;20.650;2022-09-27T02:40:41;53.08;;;22.75;;
28766;SDS011;15921;52.034;20.650;2022-09-27T02:43:09;38.90;;;19.50;;
28766;SDS011;15921;52.034;20.650;2022-09-27T02:48:39;33.40;;;17.92;;
28766;SDS011;15921;52.034;20.650;2022-09-27T02:53:50;47.33;;;18.85;;
28766;SDS011;15921;52.034;20.650;2022-09-27T02:56:49;37.80;;;17.98;;
28766;SDS011;15921;52.034;20.650;2022-09-27T03:02:17;92.65;;;23.65;;
28766;SDS011;15921;52.034;20.650;2022-09-27T03:05:02;55.28;;;21.17;;
28766;SDS011;15921;52.034;20.650;2022-09-27T03:07:32;57.28;;;22.30;;
28766;SDS011;15921;52.034;20.650;2022-09-27T03:09:59;72.75;;;23.55;;
28766;SDS011;15921;52.034;20.650;2022-09-27T03:12:24;74.25;;;23.83;;
28766;SDS011;15921;52.034;20.650;2022-09-27T03:14:52;77.55;;;22.67;;
28766;SDS011;15921;52.034;20.650;2022-09-27T03:17:23;43.15;;;19.88;;
28766;SDS011;15921;52.034;20.650;2022-09-27T03:19:49;44.08;;;20.75;;
28766;SDS011;15921;52.034;20.650;2022-09-27T03:22:15;71.20;;;21.30;;
28766;SDS011;15921;52.034;20.650;2022-09-27T03:24:40;108.55;;;21.33;;
28766;SDS011;15921;52.034;20.650;2022-09-27T03:27:07;37.08;;;18.00;;
28766;SDS011;15921;52.034;20.650;2022-09-27T03:29:32;40.65;;;19.48;;
28766;SDS011;15921;52.034;20.650;2022-09-27T03:31:58;40.90;;;18.70;;
28766;SDS011;15921;52.034;20.650;2022-09-27T03:34:24;40.95;;;16.83;;
28766;SDS011;15921;52.034;20.650;2022-09-27T03:36:50;58.75;;;19.92;;
28766;SDS011;15921;52.034;20.650;2022-09-27T03:39:16;40.42;;;19.48;;
28766;SDS011;15921;52.034;20.650;2022-09-27T03:41:42;46.03;;;17.52;;
28766;SDS011;15921;52.034;20.650;2022-09-27T03:44:08;34.78;;;17.48;;
28766;SDS011;15921;52.034;20.650;2022-09-27T03:46:34;33.70;;;16.55;;
28766;SDS011;15921;52.034;20.650;2022-09-27T03:48:59;55.42;;;17.90;;
28766;SDS011;15921;52.034;20.650;2022-09-27T03:51:25;29.63;;;16.30;;
28766;SDS011;15921;52.034;20.650;2022-09-27T03:53:51;45.35;;;16.80;;
28766;SDS011;15921;52.034;20.650;2022-09-27T03:56:17;31.45;;;16.08;;
28766;SDS011;15921;52.034;20.650;2022-09-27T03:58:43;67.50;;;15.10;;
28766;SDS011;15921;52.034;20.650;2022-09-27T04:01:09;36.45;;;15.13;;
28766;SDS011;15921;52.034;20.650;2022-09-27T04:03:35;58.15;;;16.35;;
28766;SDS011;15921;52.034;20.650;2022-09-27T04:06:02;61.75;;;17.42;;
28766;SDS011;15921;52.034;20.650;2022-09-27T04:08:28;43.75;;;15.90;;
28766;SDS011;15921;52.034;20.650;2022-09-27T04:10:54;34.60;;;12.15;;
28766;SDS011;15921;52.034;20.650;2022-09-27T04:13:21;74.10;;;15.68;;
28766;SDS011;15921;52.034;20.650;2022-09-27T04:15:46;22.35;;;13.45;;
28766;SDS011;15921;52.034;20.650;2022-09-27T04:18:12;64.32;;;16.02;;
28766;SDS011;15921;52.034;20.650;2022-09-27T04:20:38;24.38;;;13.80;;
28766;SDS011;15921;52.034;20.650;2022-09-27T04:23:04;73.57;;;14.80;;
28766;SDS011;15921;52.034;20.650;2022-09-27T04:25:30;109.97;;;15.95;;
28766;SDS011;15921;52.034;20.650;2022-09-27T04:27:57;101.45;;;15.82;;
28766;SDS011;15921;52.034;20.650;2022-09-27T04:30:23;59.15;;;14.90;;
28766;SDS011;15921;52.034;20.650;2022-09-27T04:32:50;58.75;;;13.57;;
28766;SDS011;15921;52.034;20.650;2022-09-27T04:35:16;29.50;;;12.02;;
28766;SDS011;15921;52.034;20.650;2022-09-27T04:38:01;126.43;;;15.88;;
28766;SDS011;15921;52.034;20.650;2022-09-27T04:40:27;115.45;;;16.17;;
28766;SDS011;15921;52.034;20.650;2022-09-27T04:42:53;125.15;;;17.48;;
28766;SDS011;15921;52.034;20.650;2022-09-27T04:45:20;90.88;;;15.77;;
28766;SDS011;15921;52.034;20.650;2022-09-27T04:47:47;92.47;;;15.68;;
28766;SDS011;15921;52.034;20.650;2022-09-27T04:50:14;53.42;;;14.63;;
28766;SDS011;15921;52.034;20.650;2022-09-27T04:52:48;66.53;;;14.30;;
28766;SDS011;15921;52.034;20.650;2022-09-27T04:55:18;37.35;;;13.13;;
28766;SDS011;15921;52.034;20.650;2022-09-27T04:57:45;65.95;;;13.68;;
28766;SDS011;15921;52.034;20.650;2022-09-27T05:00:11;77.45;;;13.52;;
28766;SDS011;15921;52.034;20.650;2022-09-27T05:02:38;24.13;;;11.45;;
28766;SDS011;15921;52.034;20.650;2022-09-27T05:05:04;37.33;;;12.93;;
28766;SDS011;15921;52.034;20.650;2022-09-27T05:07:32;35.10;;;11.43;;
28766;SDS011;15921;52.034;20.650;2022-09-27T05:09:59;70.03;;;13.40;;
28766;SDS011;15921;52.034;20.650;2022-09-27T05:12:25;24.98;;;10.68;;
28766;SDS011;15921;52.034;20.650;2022-09-27T05:14:51;74.80;;;13.55;;
28766;SDS011;15921;52.034;20.650;2022-09-27T05:17:17;35.63;;;12.48;;
28766;SDS011;15921;52.034;20.650;2022-09-27T05:19:45;35.42;;;11.95;;
28766;SDS011;15921;52.034;20.650;2022-09-27T05:22:10;40.15;;;12.57;;
28766;SDS011;15921;52.034;20.650;2022-09-27T05:24:36;28.92;;;12.68;;
28766;SDS011;15921;52.034;20.650;2022-09-27T05:27:02;52.38;;;14.38;;
28766;SDS011;15921;52.034;20.650;2022-09-27T05:29:32;30.92;;;11.95;;
28766;SDS011;15921;52.034;20.650;2022-09-27T05:31:59;26.73;;;12.45;;
28766;SDS011;15921;52.034;20.650;2022-09-27T05:34:25;24.38;;;12.15;;
28766;SDS011;15921;52.034;20.650;2022-09-27T05:36:51;25.35;;;12.88;;
28766;SDS011;15921;52.034;20.650;2022-09-27T05:39:17;26.13;;;12.48;;
28766;SDS011;15921;52.034;20.650;2022-09-27T05:41:43;39.80;;;13.15;;
28766;SDS011;15921;52.034;20.650;2022-09-27T05:44:10;29.40;;;14.48;;
28766;SDS011;15921;52.034;20.650;2022-09-27T05:46:37;24.08;;;12.90;;
28766;SDS011;15921;52.034;20.650;2022-09-27T05:49:04;26.08;;;14.13;;
28766;SDS011;15921;52.034;20.650;2022-09-27T05:51:30;25.67;;;12.70;;
28766;SDS011;15921;52.034;20.650;2022-09-27T05:53:56;32.45;;;13.38;;
28766;SDS011;15921;52.034;20.650;2022-09-27T05:56:22;45.15;;;13.80;;
28766;SDS011;15921;52.034;20.650;2022-09-27T05:58:49;28.67;;;14.63;;
28766;SDS011;15921;52.034;20.650;2022-09-27T06:01:18;25.48;;;13.85;;
28766;SDS011;15921;52.034;20.650;2022-09-27T06:03:43;39.45;;;13.52;;
28766;SDS011;15921;52.034;20.650;2022-09-27T06:06:11;30.52;;;14.05;;
28766;SDS011;15921;52.034;20.650;2022-09-27T06:08:37;31.52;;;13.82;;
28766;SDS011;15921;52.034;20.650;2022-09-27T06:11:05;25.38;;;14.10;;
28766;SDS011;15921;52.034;20.650;2022-09-27T06:13:33;27.58;;;13.20;;
28766;SDS011;15921;52.034;20.650;2022-09-27T06:16:03;25.92;;;12.90;;
28766;SDS011;15921;52.034;20.650;2022-09-27T06:18:30;32.58;;;15.55;;
28766;SDS011;15921;52.034;20.650;2022-09-27T06:20:59;27.67;;;13.23;;
28766;SDS011;15921;52.034;20.650;2022-09-27T06:23:26;36.83;;;14.30;;
28766;SDS011;15921;52.034;20.650;2022-09-27T06:25:53;26.67;;;14.45;;
28766;SDS011;15921;52.034;20.650;2022-09-27T06:28:20;39.55;;;15.55;;
28766;SDS011;15921;52.034;20.650;2022-09-27T06:30:49;45.28;;;16.33;;
28766;SDS011;15921;52.034;20.650;2022-09-27T06:33:19;36.58;;;17.27;;
28766;SDS011;15921;52.034;20.650;2022-09-27T06:35:45;39.05;;;18.73;;
28766;SDS011;15921;52.034;20.650;2022-09-27T06:38:13;37.50;;;17.65;;
28766;SDS011;15921;52.034;20.650;2022-09-27T06:40:42;33.47;;;16.00;;
28766;SDS011;15921;52.034;20.650;2022-09-27T06:43:10;36.70;;;18.58;;
28766;SDS011;15921;52.034;20.650;2022-09-27T06:45:37;36.97;;;16.55;;
28766;SDS011;15921;52.034;20.650;2022-09-27T06:48:04;34.95;;;17.48;;
28766;SDS011;15921;52.034;20.650;2022-09-27T06:50:34;39.75;;;18.17;;
28766;SDS011;15921;52.034;20.650;2022-09-27T06:53:03;30.13;;;16.45;;
28766;SDS011;15921;52.034;20.650;2022-09-27T06:55:29;40.10;;;18.40;;
28766;SDS011;15921;52.034;20.650;2022-09-27T06:57:55;37.38;;;18.83;;
28766;SDS011;15921;52.034;20.650;2022-09-27T07:00:41;38.03;;;19.45;;
28766;SDS011;15921;52.034;20.650;2022-09-27T07:03:08;36.83;;;17.17;;
28766;SDS011;15921;52.034;20.650;2022-09-27T07:05:38;36.15;;;17.48;;
28766;SDS011;15921;52.034;20.650;2022-09-27T07:10:35;36.30;;;18.05;;
28766;SDS011;15921;52.034;20.650;2022-09-27T07:13:05;41.50;;;19.88;;
28766;SDS011;15921;52.034;20.650;2022-09-27T07:15:32;43.40;;;19.45;;
28766;SDS011;15921;52.034;20.650;2022-09-27T07:18:00;42.53;;;20.45;;
28766;SDS011;15921;52.034;20.650;2022-09-27T07:20:27;48.08;;;22.85;;
28766;SDS011;15921;52.034;20.650;2022-09-27T07:22:56;47.72;;;22.73;;
28766;SDS011;15921;52.034;20.650;2022-09-27T07:25:22;48.97;;;22.90;;
28766;SDS011;15921;52.034;20.650;2022-09-27T07:27:49;47.45;;;23.13;;
28766;SDS011;15921;52.034;20.650;2022-09-27T07:30:19;41.80;;;20.65;;
28766;SDS011;15921;52.034;20.650;2022-09-27T07:32:45;45.70;;;23.05;;
28766;SDS011;15921;52.034;20.650;2022-09-27T07:35:12;51.83;;;24.77;;
28766;SDS011;15921;52.034;20.650;2022-09-27T07:37:40;51.25;;;26.40;;
28766;SDS011;15921;52.034;20.650;2022-09-27T07:40:07;54.20;;;27.33;;
28766;SDS011;15921;52.034;20.650;2022-09-27T07:42:34;48.72;;;23.58;;
28766;SDS011;15921;52.034;20.650;2022-09-27T07:45:05;38.70;;;20.70;;
28766;SDS011;15921;52.034;20.650;2022-09-27T07:47:32;42.92;;;21.90;;
28766;SDS011;15921;52.034;20.650;2022-09-27T07:49:58;46.20;;;22.90;;
28766;SDS011;15921;52.034;20.650;2022-09-27T07:52:23;43.40;;;21.20;;
28766;SDS011;15921;52.034;20.650;2022-09-27T07:54:49;48.20;;;22.58;;
28766;SDS011;15921;52.034;20.650;2022-09-27T07:57:15;38.42;;;19.50;;
28766;SDS011;15921;52.034;20.650;2022-09-27T07:59:41;41.92;;;21.13;;
28766;SDS011;15921;52.034;20.650;2022-09-27T08:02:13;37.10;;;19.63;;
28766;SDS011;15921;52.034;20.650;2022-09-27T08:04:40;38.30;;;20.23;;
28766;SDS011;15921;52.034;20.650;2022-09-27T08:07:11;34.33;;;18.58;;
28766;SDS011;15921;52.034;20.650;2022-09-27T08:09:38;38.58;;;20.98;;
28766;SDS011;15921;52.034;20.650;2022-09-27T08:12:03;38.08;;;21.38;;
28766;SDS011;15921;52.034;20.650;2022-09-27T08:14:29;37.17;;;20.40;;
28766;SDS011;15921;52.034;20.650;2022-09-27T08:16:55;30.95;;;18.50;;
28766;SDS011;15921;52.034;20.650;2022-09-27T08:19:21;33.55;;;19.88;;
28766;SDS011;15921;52.034;20.650;2022-09-27T08:21:47;27.95;;;18.23;;
28766;SDS011;15921;52.034;20.650;2022-09-27T08:24:15;27.73;;;16.88;;
28766;SDS011;15921;52.034;20.650;2022-09-27T08:26:41;25.95;;;16.60;;
28766;SDS011;15921;52.034;20.650;2022-09-27T08:29:06;30.23;;;19.08;;
28766;SDS011;15921;52.034;20.650;2022-09-27T08:31:32;29.33;;;17.75;;
28766;SDS011;15921;52.034;20.650;2022-09-27T08:33:58;28.52;;;17.90;;
28766;SDS011;15921;52.034;20.650;2022-09-27T08:36:24;23.88;;;16.02;;
28766;SDS011;15921;52.034;20.650;2022-09-27T08:38:50;22.55;;;14.30;;
28766;SDS011;15921;52.034;20.650;2022-09-27T08:41:25;29.88;;;17.05;;
28766;SDS011;15921;52.034;20.650;2022-09-27T08:44:42;33.85;;;19.42;;
28766;SDS011;15921;52.034;20.650;2022-09-27T08:49:22;35.45;;;20.83;;
28766;SDS011;15921;52.034;20.650;2022-09-27T08:51:53;33.87;;;18.37;;
28766;SDS011;15921;52.034;20.650;2022-09-27T08:54:23;27.65;;;17.50;;
28766;SDS011;15921;52.034;20.650;2022-09-27T08:56:57;26.98;;;16.80;;
28766;SDS011;15921;52.034;20.650;2022-09-27T08:59:30;26.33;;;16.77;;
28766;SDS011;15921;52.034;20.650;2022-09-27T09:02:02;23.63;;;15.00;;
28766;SDS011;15921;52.034;20.650;2022-09-27T09:04:36;23.90;;;14.93;;
28766;SDS011;15921;52.034;20.650;2022-09-27T09:07:15;21.50;;;13.73;;
28766;SDS011;15921;52.034;20.650;2022-09-27T09:13:17;20.67;;;13.15;;
28766;SDS011;15921;52.034;20.650;2022-09-27T09:16:08;22.33;;;14.05;;
28766;SDS011;15921;52.034;20.650;2022-09-27T09:30:03;20.23;;;12.75;;
28766;SDS011;15921;52.034;20.650;2022-09-27T09:35:12;22.98;;;14.88;;
28766;SDS011;15921;52.034;20.650;2022-09-27T09:37:50;19.98;;;14.43;;
28766;SDS011;15921;52.034;20.650;2022-09-27T09:46:06;18.55;;;13.93;;
28766;SDS011;15921;52.034;20.650;2022-09-27T09:48:27;23.08;;;15.38;;
28766;SDS011;15921;52.034;20.650;2022-09-27T09:50:58;22.15;;;15.73;;
28766;SDS011;15921;52.034;20.650;2022-09-27T09:53:38;24.20;;;15.63;;
28766;SDS011;15921;52.034;20.650;2022-09-27T09:56:30;25.30;;;16.48;;
28766;SDS011;15921;52.034;20.650;2022-09-27T09:59:19;28.48;;;17.15;;
28766;SDS011;15921;52.034;20.650;2022-09-27T10:02:02;27.20;;;16.73;;
28766;SDS011;15921;52.034;20.650;2022-09-27T10:04:47;22.17;;;15.48;;
28766;SDS011;15921;52.034;20.650;2022-09-27T10:07:13;27.10;;;16.30;;
28766;SDS011;15921;52.034;20.650;2022-09-27T10:09:43;28.17;;;18.05;;
28766;SDS011;15921;52.034;20.650;2022-09-27T10:12:10;26.50;;;17.52;;
28766;SDS011;15921;52.034;20.650;2022-09-27T10:14:36;26.60;;;17.55;;
28766;SDS011;15921;52.034;20.650;2022-09-27T10:17:03;22.30;;;15.52;;
28766;SDS011;15921;52.034;20.650;2022-09-27T10:19:35;28.20;;;16.98;;
28766;SDS011;15921;52.034;20.650;2022-09-27T10:22:12;24.45;;;16.60;;
28766;SDS011;15921;52.034;20.650;2022-09-27T10:27:19;22.50;;;15.65;;
28766;SDS011;15921;52.034;20.650;2022-09-27T10:29:45;22.75;;;15.38;;
28766;SDS011;15921;52.034;20.650;2022-09-27T10:32:21;24.00;;;16.77;;
28766;SDS011;15921;52.034;20.650;2022-09-27T10:34:54;24.92;;;17.25;;
28766;SDS011;15921;52.034;20.650;2022-09-27T10:37:21;25.77;;;17.40;;
28766;SDS011;15921;52.034;20.650;2022-09-27T10:39:48;23.25;;;17.17;;
28766;SDS011;15921;52.034;20.650;2022-09-27T10:42:19;25.10;;;17.00;;
28766;SDS011;15921;52.034;20.650;2022-09-27T10:44:46;25.80;;;17.75;;
28766;SDS011;15921;52.034;20.650;2022-09-27T10:47:12;26.60;;;18.35;;
28766;SDS011;15921;52.034;20.650;2022-09-27T10:49:46;30.75;;;19.92;;
28766;SDS011;15921;52.034;20.650;2022-09-27T10:52:20;31.17;;;17.92;;
28766;SDS011;15921;52.034;20.650;2022-09-27T10:57:46;31.92;;;18.02;;
28766;SDS011;15921;52.034;20.650;2022-09-27T11:00:35;28.05;;;16.48;;
28766;SDS011;15921;52.034;20.650;2022-09-27T11:03:04;26.67;;;17.55;;
28766;SDS011;15921;52.034;20.650;2022-09-27T11:05:37;29.88;;;19.42;;
28766;SDS011;15921;52.034;20.650;2022-09-27T11:08:23;31.80;;;18.15;;
28766;SDS011;15921;52.034;20.650;2022-09-27T11:13:37;29.40;;;19.40;;
28766;SDS011;15921;52.034;20.650;2022-09-27T11:48:26;19.75;;;12.98;;
28766;SDS011;15921;52.034;20.650;2022-09-27T11:59:47;22.27;;;15.00;;
28766;SDS011;15921;52.034;20.650;2022-09-27T12:08:19;17.73;;;12.60;;
28766;SDS011;15921;52.034;20.650;2022-09-27T12:11:02;16.30;;;11.80;;
28766;SDS011;15921;52.034;20.650;2022-09-27T12:13:36;16.98;;;12.57;;
28766;SDS011;15921;52.034;20.650;2022-09-27T12:16:07;15.55;;;9.93;;
28766;SDS011;15921;52.034;20.650;2022-09-27T12:18:36;17.08;;;11.98;;
28766;SDS011;15921;52.034;20.650;2022-09-27T12:21:03;18.65;;;11.48;;
28766;SDS011;15921;52.034;20.650;2022-09-27T12:26:27;15.48;;;12.40;;
28766;SDS011;15921;52.034;20.650;2022-09-27T12:31:55;19.55;;;13.45;;
28766;SDS011;15921;52.034;20.650;2022-09-27T12:34:43;14.73;;;11.77;;
28766;SDS011;15921;52.034;20.650;2022-09-27T12:37:18;15.43;;;10.02;;
28766;SDS011;15921;52.034;20.650;2022-09-27T12:42:49;13.70;;;10.45;;
28766;SDS011;15921;52.034;20.650;2022-09-27T12:45:49;16.58;;;11.43;;
28766;SDS011;15921;52.034;20.650;2022-09-27T12:50:54;16.00;;;11.30;;
28766;SDS011;15921;52.034;20.650;2022-09-27T12:53:27;16.83;;;12.07;;
28766;SDS011;15921;52.034;20.650;2022-09-27T12:56:05;15.43;;;11.00;;
28766;SDS011;15921;52.034;20.650;2022-09-27T12:58:56;18.67;;;11.00;;
28766;SDS011;15921;52.034;20.650;2022-09-27T13:07:27;11.63;;;8.35;;
28766;SDS011;15921;52.034;20.650;2022-09-27T13:12:35;11.45;;;9.05;;
28766;SDS011;15921;52.034;20.650;2022-09-27T13:22:56;9.15;;;6.70;;
28766;SDS011;15921;52.034;20.650;2022-09-27T13:30:57;11.27;;;8.02;;
28766;SDS011;15921;52.034;20.650;2022-09-27T13:41:25;11.30;;;9.03;;
28766;SDS011;15921;52.034;20.650;2022-09-27T13:44:23;17.35;;;9.48;;
28766;SDS011;15921;52.034;20.650;2022-09-27T13:47:02;16.92;;;9.48;;
28766;SDS011;15921;52.034;20.650;2022-09-27T13:49:40;13.23;;;10.13;;
28766;SDS011;15921;52.034;20.650;2022-09-27T13:54:58;14.05;;;8.93;;
28766;SDS011;15921;52.034;20.650;2022-09-27T14:00:15;14.20;;;10.98;;
28766;SDS011;15921;52.034;20.650;2022-09-27T14:05:22;15.00;;;10.20;;
28766;SDS011;15921;52.034;20.650;2022-09-27T14:07:52;12.07;;;8.80;;
28766;SDS011;15921;52.034;20.650;2022-09-27T14:10:20;12.48;;;9.60;;
28766;SDS011;15921;52.034;20.650;2022-09-27T14:12:47;15.50;;;9.93;;
28766;SDS011;15921;52.034;20.650;2022-09-27T14:15:23;11.65;;;9.43;;
28766;SDS011;15921;52.034;20.650;2022-09-27T14:17:51;16.08;;;11.13;;
28766;SDS011;15921;52.034;20.650;2022-09-27T14:23:41;10.80;;;8.90;;
28766;SDS011;15921;52.034;20.650;2022-09-27T14:26:18;11.60;;;9.52;;
28766;SDS011;15921;52.034;20.650;2022-09-27T14:28:50;12.05;;;9.77;;
28766;SDS011;15921;52.034;20.650;2022-09-27T14:31:17;12.68;;;10.35;;
28766;SDS011;15921;52.034;20.650;2022-09-27T14:33:48;13.73;;;10.23;;
28766;SDS011;15921;52.034;20.650;2022-09-27T14:39:18;18.38;;;10.25;;
28766;SDS011;15921;52.034;20.650;2022-09-27T14:41:47;17.55;;;11.20;;
28766;SDS011;15921;52.034;20.650;2022-09-27T14:44:13;16.30;;;10.60;;
28766;SDS011;15921;52.034;20.650;2022-09-27T14:46:41;12.65;;;10.80;;
28766;SDS011;15921;52.034;20.650;2022-09-27T14:49:20;15.93;;;9.90;;
28766;SDS011;15921;52.034;20.650;2022-09-27T14:51:54;16.27;;;10.48;;
28766;SDS011;15921;52.034;20.650;2022-09-27T14:54:25;13.68;;;10.88;;
28766;SDS011;15921;52.034;20.650;2022-09-27T14:56:53;16.00;;;10.48;;
28766;SDS011;15921;52.034;20.650;2022-09-27T14:59:24;14.02;;;10.52;;
28766;SDS011;15921;52.034;20.650;2022-09-27T15:01:52;14.82;;;10.90;;
28766;SDS011;15921;52.034;20.650;2022-09-27T15:04:19;15.70;;;10.10;;
28766;SDS011;15921;52.034;20.650;2022-09-27T15:06:47;12.48;;;10.30;;
28766;SDS011;15921;52.034;20.650;2022-09-27T15:09:13;13.88;;;10.35;;
28766;SDS011;15921;52.034;20.650;2022-09-27T15:11:41;19.75;;;11.23;;
28766;SDS011;15921;52.034;20.650;2022-09-27T15:14:12;20.52;;;10.70;;
28766;SDS011;15921;52.034;20.650;2022-09-27T15:16:40;17.63;;;11.00;;
28766;SDS011;15921;52.034;20.650;2022-09-27T15:21:46;12.77;;;10.13;;
28766;SDS011;15921;52.034;20.650;2022-09-27T15:27:13;12.77;;;10.02;;
28766;SDS011;15921;52.034;20.650;2022-09-27T15:30:03;17.00;;;10.32;;
28766;SDS011;15921;52.034;20.650;2022-09-27T15:32:29;14.15;;;11.00;;
28766;SDS011;15921;52.034;20.650;2022-09-27T15:34:55;12.80;;;10.15;;
28766;SDS011;15921;52.034;20.650;2022-09-27T15:37:34;16.52;;;10.55;;
28766;SDS011;15921;52.034;20.650;2022-09-27T15:43:22;12.95;;;10.35;;
28766;SDS011;15921;52.034;20.650;2022-09-27T15:45:58;15.27;;;11.65;;
28766;SDS011;15921;52.034;20.650;2022-09-27T15:48:30;14.60;;;11.70;;
28766;SDS011;15921;52.034;20.650;2022-09-27T15:50:57;18.30;;;11.93;;
28766;SDS011;15921;52.034;20.650;2022-09-27T15:56:05;22.40;;;13.23;;
28766;SDS011;15921;52.034;20.650;2022-09-27T15:58:31;19.52;;;13.63;;
28766;SDS011;15921;52.034;20.650;2022-09-27T16:00:59;21.15;;;13.73;;
28766;SDS011;15921;52.034;20.650;2022-09-27T16:03:32;17.67;;;12.90;;
28766;SDS011;15921;52.034;20.650;2022-09-27T16:05:59;18.75;;;13.88;;
28766;SDS011;15921;52.034;20.650;2022-09-27T16:08:26;19.60;;;15.25;;
28766;SDS011;15921;52.034;20.650;2022-09-27T16:10:56;19.45;;;14.57;;
28766;SDS011;15921;52.034;20.650;2022-09-27T16:13:24;21.20;;;14.60;;
28766;SDS011;15921;52.034;20.650;2022-09-27T16:15:50;21.27;;;15.60;;
28766;SDS011;15921;52.034;20.650;2022-09-27T16:18:16;21.20;;;15.80;;
28766;SDS011;15921;52.034;20.650;2022-09-27T16:20:42;20.27;;;14.48;;
28766;SDS011;15921;52.034;20.650;2022-09-27T16:23:08;21.45;;;16.35;;
28766;SDS011;15921;52.034;20.650;2022-09-27T16:25:34;22.20;;;17.35;;
28766;SDS011;15921;52.034;20.650;2022-09-27T16:28:00;23.73;;;16.58;;
28766;SDS011;15921;52.034;20.650;2022-09-27T16:30:27;23.13;;;17.02;;
28766;SDS011;15921;52.034;20.650;2022-09-27T16:32:54;21.60;;;16.45;;
28766;SDS011;15921;52.034;20.650;2022-09-27T16:35:21;24.52;;;18.77;;
28766;SDS011;15921;52.034;20.650;2022-09-27T16:37:49;25.90;;;18.35;;
28766;SDS011;15921;52.034;20.650;2022-09-27T16:40:15;27.65;;;18.67;;
28766;SDS011;15921;52.034;20.650;2022-09-27T16:42:45;24.88;;;18.92;;
28766;SDS011;15921;52.034;20.650;2022-09-27T16:45:12;23.80;;;17.52;;
28766;SDS011;15921;52.034;20.650;2022-09-27T16:47:40;22.70;;;17.13;;
28766;SDS011;15921;52.034;20.650;2022-09-27T16:50:06;17.92;;;13.55;;
28766;SDS011;15921;52.034;20.650;2022-09-27T16:52:52;17.67;;;13.10;;
28766;SDS011;15921;52.034;20.650;2022-09-27T16:55:19;17.88;;;13.07;;
28766;SDS011;15921;52.034;20.650;2022-09-27T16:57:45;17.48;;;11.95;;
28766;SDS011;15921;52.034;20.650;2022-09-27T17:00:12;16.48;;;12.38;;
28766;SDS011;15921;52.034;20.650;2022-09-27T17:02:38;16.85;;;11.88;;
28766;SDS011;15921;52.034;20.650;2022-09-27T17:05:04;14.63;;;11.50;;
28766;SDS011;15921;52.034;20.650;2022-09-27T17:07:30;14.20;;;11.23;;
28766;SDS011;15921;52.034;20.650;2022-09-27T17:09:56;16.08;;;10.93;;
28766;SDS011;15921;52.034;20.650;2022-09-27T17:12:22;16.85;;;12.00;;
28766;SDS011;15921;52.034;20.650;2022-09-27T17:14:48;17.92;;;12.55;;
28766;SDS011;15921;52.034;20.650;2022-09-27T17:17:14;20.05;;;13.30;;
28766;SDS011;15921;52.034;20.650;2022-09-27T17:19:40;22.45;;;15.00;;
28766;SDS011;15921;52.034;20.650;2022-09-27T17:22:06;18.65;;;12.55;;
28766;SDS011;15921;52.034;20.650;2022-09-27T17:24:32;18.13;;;12.85;;
28766;SDS011;15921;52.034;20.650;2022-09-27T17:26:59;19.08;;;12.70;;
28766;SDS011;15921;52.034;20.650;2022-09-27T17:29:24;21.20;;;13.98;;
28766;SDS011;15921;52.034;20.650;2022-09-27T17:31:51;18.80;;;13.02;;
28766;SDS011;15921;52.034;20.650;2022-09-27T17:34:16;20.02;;;14.95;;
28766;SDS011;15921;52.034;20.650;2022-09-27T17:36:43;23.35;;;15.45;;
28766;SDS011;15921;52.034;20.650;2022-09-27T17:39:16;23.77;;;16.02;;
28766;SDS011;15921;52.034;20.650;2022-09-27T17:41:45;25.90;;;17.23;;
28766;SDS011;15921;52.034;20.650;2022-09-27T17:44:13;24.75;;;16.30;;